Time;durP1;ratioP1;P1;durP2;ratioP2;P2;SDS_P1;SDS_P2;PMS_P1;PMS_P2;Temp;Humidity;BMP_temperature;BMP_pressure;BME280_temperature;BME280_humidity;BME280_pressure;Samples;Min_cycle;Max_cycle;Signal;HPM_P1;HPM_P2
2023/06/16 00:01:09;;;;;;;8.70;5.22;;;18.70;93.50;;;;;;5055043;28;20040;-75
2023/06/16 00:03:35;;;;;;;5.93;5.35;;;18.50;93.50;;;;;;5043960;28;20037;-74
2023/06/16 00:06:12;;;;;;;6.75;6.05;;;18.50;93.60;;;;;;5017088;28;20092;-77
2023/06/16 00:08:46;;;;;;;6.22;5.63;;;18.50;93.60;;;;;;5038124;28;20080;-75
2023/06/16 00:11:16;;;;;;;6.00;5.50;;;18.40;93.70;;;;;;5052229;28;20135;-76
2023/06/16 00:13:43;;;;;;;6.82;6.22;;;17.90;93.70;;;;;;5036048;28;20079;-77
2023/06/16 00:16:09;;;;;;;7.20;6.57;;;19.30;94.20;;;;;;5060944;28;20036;-76
2023/06/16 00:18:36;;;;;;;9.32;6.32;;;18.30;94.00;;;;;;5050723;28;20043;-75
2023/06/16 00:21:02;;;;;;;7.40;6.68;;;18.40;94.10;;;;;;5068380;28;20939;-77
2023/06/16 00:23:29;;;;;;;8.00;6.60;;;18.30;94.10;;;;;;5068290;28;20106;-76
2023/06/16 00:25:56;;;;;;;7.95;6.55;;;18.50;94.30;;;;;;5067838;28;20488;-76
2023/06/16 00:28:23;;;;;;;7.53;6.70;;;18.30;94.30;;;;;;5068889;28;20037;-75
2023/06/16 00:30:49;;;;;;;10.88;6.40;;;18.30;94.50;;;;;;5067775;28;20079;-76
2023/06/16 00:33:15;;;;;;;7.57;6.85;;;18.70;94.40;;;;;;5075417;28;20067;-75
2023/06/16 00:35:45;;;;;;;6.93;6.25;;;18.20;94.30;;;;;;5051523;28;20048;-77
2023/06/16 00:38:11;;;;;;;6.93;6.40;;;18.20;94.40;;;;;;5068861;28;20036;-77
2023/06/16 00:40:37;;;;;;;8.07;6.45;;;18.40;94.40;;;;;;5066555;28;20048;-78
2023/06/16 00:43:03;;;;;;;7.18;6.55;;;18.10;94.40;;;;;;5063992;28;20116;-78
2023/06/16 00:45:30;;;;;;;6.78;6.18;;;18.10;94.40;;;;;;5051715;28;20132;-75
2023/06/16 00:47:57;;;;;;;7.15;6.35;;;18.20;94.40;;;;;;5067588;28;20064;-77
2023/06/16 00:50:23;;;;;;;7.80;5.57;;;18.10;94.30;;;;;;5058161;28;20444;-77
2023/06/16 00:52:49;;;;;;;7.45;5.85;;;18.00;94.20;;;;;;5074111;28;20048;-77
2023/06/16 00:55:16;;;;;;;9.10;6.28;;;18.00;94.20;;;;;;5053968;28;20033;-78
2023/06/16 00:57:42;;;;;;;7.43;5.55;;;17.90;94.20;;;;;;5063816;28;20048;-78
2023/06/16 01:00:11;;;;;;;6.22;5.55;;;17.90;94.20;;;;;;5065570;28;20048;-76
2023/06/16 01:02:38;;;;;;;7.78;5.50;;;17.90;94.20;;;;;;5066240;28;20448;-77
2023/06/16 01:05:07;;;;;;;6.32;5.35;;;17.80;94.20;;;;;;5077554;28;20048;-77
2023/06/16 01:07:44;;;;;;;5.85;5.43;;;17.80;94.30;;;;;;5054967;28;20048;-77
2023/06/16 01:10:18;;;;;;;6.60;6.00;;;18.20;94.40;;;;;;5073894;28;20405;-75
2023/06/16 01:13:02;;;;;;;5.65;5.15;;;17.60;94.40;;;;;;5067972;28;20043;-76
2023/06/16 01:15:31;;;;;;;9.75;5.60;;;17.70;94.50;;;;;;5060526;28;20048;-77
2023/06/16 01:18:00;;;;;;;7.18;5.88;;;18.10;94.60;;;;;;5066003;28;20041;-75
2023/06/16 01:20:38;;;;;;;6.25;5.18;;;17.50;94.50;;;;;;5062844;28;20041;-77
2023/06/16 01:23:35;;;;;;;8.38;6.03;;;18.00;94.60;;;;;;5067203;28;20045;-75
2023/06/16 01:26:03;;;;;;;6.47;5.70;;;17.50;94.50;;;;;;5035928;28;20095;-77
2023/06/16 01:28:32;;;;;;;7.75;5.57;;;17.70;94.60;;;;;;5081792;28;20044;-78
2023/06/16 01:31:00;;;;;;;6.20;5.60;;;17.40;94.50;;;;;;5060402;28;20052;-76
2023/06/16 01:33:27;;;;;;;6.13;5.25;;;17.30;94.50;;;;;;5054600;28;20037;-77
2023/06/16 01:35:53;;;;;;;6.25;5.65;;;17.30;94.50;;;;;;5055931;28;20049;-76
2023/06/16 01:38:24;;;;;;;6.57;5.95;;;17.40;94.50;;;;;;5065774;28;20044;-76
2023/06/16 01:40:51;;;;;;;6.53;5.60;;;17.30;94.60;;;;;;5053410;28;20056;-76
2023/06/16 01:43:18;;;;;;;6.18;5.03;;;17.20;94.70;;;;;;5057249;28;20051;-75
2023/06/16 01:45:45;;;;;;;6.00;5.50;;;17.20;94.80;;;;;;5031504;28;20128;-76
2023/06/16 01:48:11;;;;;;;11.18;6.50;;;18.00;95.10;;;;;;5059083;28;20451;-75
2023/06/16 01:50:37;;;;;;;5.78;5.28;;;17.00;94.90;;;;;;5039612;28;20052;-76
2023/06/16 01:53:03;;;;;;;7.22;5.60;;;17.00;94.90;;;;;;5041400;28;20064;-74
2023/06/16 01:55:28;;;;;;;5.70;5.20;;;17.00;94.90;;;;;;5056399;28;20500;-77
2023/06/16 01:57:56;;;;;;;6.20;5.60;;;16.90;95.00;;;;;;5073946;28;20056;-76
2023/06/16 02:00:39;;;;;;;7.35;5.22;;;16.90;95.00;;;;;;5043616;28;20157;-77
2023/06/16 02:03:15;;;;;;;9.85;6.18;;;16.80;95.10;;;;;;5046386;28;20041;-77
2023/06/16 02:05:46;;;;;;;6.40;5.75;;;16.80;95.10;;;;;;5049091;28;20448;-75
2023/06/16 02:08:15;;;;;;;6.53;5.50;;;16.70;95.10;;;;;;5059815;28;20046;-77
2023/06/16 02:10:41;;;;;;;6.72;6.03;;;16.70;95.10;;;;;;5075547;28;20036;-78
2023/06/16 02:13:08;;;;;;;7.05;6.25;;;16.80;95.10;;;;;;5073151;28;20082;-76
2023/06/16 02:15:33;;;;;;;6.75;5.90;;;16.90;95.10;;;;;;5078825;28;20040;-77
2023/06/16 02:17:59;;;;;;;7.00;6.35;;;16.80;95.10;;;;;;5065125;28;20694;-75
2023/06/16 02:20:26;;;;;;;9.00;6.53;;;17.50;95.30;;;;;;5069928;28;20036;-76
2023/06/16 02:22:52;;;;;;;6.63;6.05;;;16.90;95.30;;;;;;5074368;28;20461;-76
2023/06/16 02:25:17;;;;;;;6.93;6.32;;;16.80;95.40;;;;;;5073737;28;20575;-77
2023/06/16 02:27:44;;;;;;;8.07;7.03;;;16.70;95.70;;;;;;5077032;28;20052;-74
2023/06/16 02:30:13;;;;;;;11.05;6.28;;;16.60;95.90;;;;;;5080621;28;20040;-76
2023/06/16 02:32:39;;;;;;;7.68;6.97;;;16.50;95.80;;;;;;5067885;28;20372;-74
2023/06/16 02:35:06;;;;;;;6.13;5.63;;;16.40;95.90;;;;;;5070320;28;20047;-76
2023/06/16 02:37:35;;;;;;;7.43;6.68;;;16.40;96.10;;;;;;5065613;28;20036;-76
2023/06/16 02:40:05;;;;;;;9.88;8.02;;;16.30;96.20;;;;;;5073050;28;20136;-74
2023/06/16 02:42:32;;;;;;;8.20;7.30;;;16.20;96.30;;;;;;5073666;28;20055;-76
2023/06/16 02:44:57;;;;;;;7.55;6.82;;;16.20;96.50;;;;;;5076360;28;20085;-76
2023/06/16 02:47:23;;;;;;;7.55;6.85;;;16.20;96.50;;;;;;5073888;28;20475;-76
2023/06/16 02:49:54;;;;;;;8.02;7.13;;;16.30;96.60;;;;;;5059133;28;20044;-76
2023/06/16 02:52:20;;;;;;;8.68;7.78;;;16.20;96.90;;;;;;5039292;28;20036;-76
2023/06/16 02:54:46;;;;;;;9.60;7.60;;;16.10;96.90;;;;;;5072977;28;20040;-76
2023/06/16 02:57:12;;;;;;;8.60;7.32;;;16.10;97.20;;;;;;5057599;28;20183;-75
2023/06/16 02:59:37;;;;;;;11.20;8.07;;;16.00;97.20;;;;;;5044039;28;20144;-75
2023/06/16 03:02:03;;;;;;;15.80;8.02;;;16.00;97.30;;;;;;5053357;28;20485;-75
2023/06/16 03:04:29;;;;;;;9.10;8.25;;;16.00;97.40;;;;;;5064166;28;20040;-76
2023/06/16 03:06:57;;;;;;;7.85;7.05;;;15.90;97.40;;;;;;5046875;28;20526;-76
2023/06/16 03:09:26;;;;;;;8.77;7.85;;;15.90;97.50;;;;;;5061922;28;20139;-74
2023/06/16 03:11:53;;;;;;;8.93;7.95;;;15.90;97.50;;;;;;5030042;28;20177;-74
2023/06/16 03:14:19;;;;;;;10.60;8.82;;;15.90;97.50;;;;;;5074261;28;20041;-76
2023/06/16 03:16:47;;;;;;;9.40;8.50;;;15.90;97.60;;;;;;5069101;28;20076;-74
2023/06/16 03:19:14;;;;;;;9.55;8.55;;;16.00;97.60;;;;;;5067165;28;20507;-75
2023/06/16 03:21:40;;;;;;;10.02;8.98;;;16.00;97.60;;;;;;5070277;28;20206;-75
2023/06/16 03:24:05;;;;;;;11.02;8.82;;;15.90;97.70;;;;;;5080122;28;20132;-74
2023/06/16 03:26:31;;;;;;;8.80;8.10;;;15.90;97.80;;;;;;5066128;28;20400;-76
2023/06/16 03:28:58;;;;;;;9.77;8.73;;;16.00;97.90;;;;;;5056308;28;20079;-76
2023/06/16 03:31:23;;;;;;;10.38;9.38;;;15.70;97.90;;;;;;5054262;28;20055;-76
2023/06/16 03:33:49;;;;;;;9.85;8.85;;;15.70;98.10;;;;;;5056353;28;20063;-76
2023/06/16 03:36:16;;;;;;;12.68;8.75;;;15.70;98.20;;;;;;5038244;28;20061;-76
2023/06/16 03:38:42;;;;;;;12.73;8.02;;;15.70;98.20;;;;;;5051278;28;20049;-76
2023/06/16 03:41:08;;;;;;;11.05;8.27;;;15.80;98.20;;;;;;5034694;28;20043;-74
2023/06/16 03:43:33;;;;;;;9.00;7.88;;;15.80;98.10;;;;;;5056138;28;20622;-75
2023/06/16 03:45:59;;;;;;;9.63;8.57;;;15.80;98.00;;;;;;5023391;28;20044;-77
2023/06/16 03:48:25;;;;;;;10.48;8.85;;;16.50;98.20;;;;;;5038194;28;20202;-74
2023/06/16 03:50:52;;;;;;;11.43;9.10;;;15.70;98.20;;;;;;5050046;28;20035;-75
2023/06/16 03:53:19;;;;;;;10.15;9.13;;;15.70;98.40;;;;;;5033893;28;20110;-77
2023/06/16 03:55:47;;;;;;;9.88;8.95;;;15.70;98.60;;;;;;5050697;28;20049;-76
2023/06/16 03:58:15;;;;;;;9.98;9.15;;;16.30;98.80;;;;;;5070271;28;20060;-75
2023/06/16 04:00:43;;;;;;;12.70;9.02;;;15.70;98.70;;;;;;5053593;28;20083;-76
2023/06/16 04:03:10;;;;;;;12.18;10.98;;;16.90;99.10;;;;;;5067068;28;20060;-76
2023/06/16 04:05:35;;;;;;;12.23;10.60;;;15.70;99.00;;;;;;5037536;28;20060;-76
2023/06/16 04:08:01;;;;;;;13.45;10.43;;;15.60;99.10;;;;;;5064363;28;20045;-77
2023/06/16 04:10:27;;;;;;;13.77;12.25;;;15.50;99.40;;;;;;5071334;28;20135;-75
2023/06/16 04:12:53;;;;;;;11.23;10.23;;;15.90;99.70;;;;;;5074437;28;20543;-76
2023/06/16 04:15:19;;;;;;;13.45;12.25;;;15.60;99.80;;;;;;5071854;28;20048;-76
2023/06/16 04:17:46;;;;;;;13.40;12.13;;;15.80;99.90;;;;;;5068237;28;20037;-76
2023/06/16 04:20:12;;;;;;;15.13;13.20;;;15.50;99.90;;;;;;5074016;28;20044;-77
2023/06/16 04:22:39;;;;;;;13.93;12.73;;;15.50;99.90;;;;;;5068393;28;20052;-75
2023/06/16 04:25:06;;;;;;;12.07;11.05;;;16.00;99.90;;;;;;5071692;28;20052;-75
2023/06/16 04:27:33;;;;;;;17.02;13.52;;;15.60;99.90;;;;;;5050121;28;20082;-76
2023/06/16 04:30:04;;;;;;;18.02;12.85;;;16.00;99.90;;;;;;5070851;28;20104;-78
2023/06/16 04:32:29;;;;;;;14.93;13.48;;;15.70;99.90;;;;;;5062171;28;20397;-75
2023/06/16 04:34:57;;;;;;;14.85;13.48;;;16.80;99.90;;;;;;5052170;28;20036;-77
2023/06/16 04:37:23;;;;;;;15.13;13.70;;;16.80;99.90;;;;;;5061888;28;20567;-75
2023/06/16 04:39:49;;;;;;;16.63;14.52;;;16.00;99.90;;;;;;5044506;28;20069;-75
2023/06/16 04:42:15;;;;;;;16.20;14.57;;;16.30;99.90;;;;;;5069721;28;20484;-75
2023/06/16 04:44:41;;;;;;;18.15;16.25;;;15.70;99.90;;;;;;5056626;28;20422;-75
2023/06/16 04:47:09;;;;;;;18.58;16.77;;;16.10;99.90;;;;;;5064964;28;20073;-75
2023/06/16 04:49:35;;;;;;;17.88;16.33;;;15.70;99.90;;;;;;5063188;28;20124;-76
2023/06/16 04:52:01;;;;;;;19.17;17.15;;;15.70;99.90;;;;;;5059069;28;20388;-76
2023/06/16 04:54:29;;;;;;;20.80;18.60;;;15.70;99.90;;;;;;5079106;28;20569;-74
2023/06/16 04:56:54;;;;;;;19.55;17.65;;;15.70;99.90;;;;;;5066611;28;20066;-74
2023/06/16 04:59:20;;;;;;;20.35;18.30;;;15.70;99.90;;;;;;5076326;28;20252;-75
2023/06/16 05:01:46;;;;;;;22.13;19.40;;;15.70;99.90;;;;;;5067352;28;20048;-76
2023/06/16 05:04:11;;;;;;;21.88;19.48;;;15.80;99.90;;;;;;5067361;28;20051;-76
2023/06/16 05:06:37;;;;;;;23.05;19.83;;;15.80;99.90;;;;;;5059558;28;20135;-77
2023/06/16 05:09:04;;;;;;;21.70;19.52;;;15.80;99.90;;;;;;5042272;28;20151;-76
2023/06/16 05:11:30;;;;;;;20.85;18.85;;;15.80;99.90;;;;;;5075677;28;20116;-77
2023/06/16 05:13:55;;;;;;;19.67;17.45;;;15.80;99.90;;;;;;5069668;28;20080;-77
2023/06/16 05:16:21;;;;;;;19.85;18.02;;;15.80;99.90;;;;;;5045965;28;20468;-75
2023/06/16 05:18:47;;;;;;;19.15;17.27;;;16.20;99.90;;;;;;5053773;28;20037;-75
2023/06/16 05:21:12;;;;;;;19.30;17.38;;;16.10;99.90;;;;;;5057184;28;20743;-75
2023/06/16 05:23:38;;;;;;;17.08;15.50;;;16.00;99.90;;;;;;5057553;28;20060;-77
2023/06/16 05:26:05;;;;;;;15.70;14.18;;;16.10;99.90;;;;;;5056661;28;20044;-77
2023/06/16 05:28:31;;;;;;;15.80;14.20;;;16.20;99.90;;;;;;5059290;28;20087;-77
2023/06/16 05:31:00;;;;;;;18.55;16.75;;;16.80;99.90;;;;;;5056851;28;20044;-76
2023/06/16 05:33:26;;;;;;;16.77;15.02;;;16.30;99.90;;;;;;5057555;28;20039;-76
2023/06/16 05:35:55;;;;;;;16.73;15.25;;;16.40;99.90;;;;;;5044011;28;20040;-77
2023/06/16 05:38:20;;;;;;;16.27;14.65;;;16.40;99.90;;;;;;5024488;28;20039;-77
2023/06/16 05:40:46;;;;;;;17.45;15.75;;;16.50;99.90;;;;;;5056516;28;20036;-77
2023/06/16 05:43:11;;;;;;;16.85;15.07;;;17.20;99.90;;;;;;5056248;28;20036;-76
2023/06/16 05:45:37;;;;;;;16.05;14.43;;;17.50;99.90;;;;;;5059110;28;20045;-77
2023/06/16 05:48:03;;;;;;;15.43;13.75;;;17.10;99.90;;;;;;5035761;28;20077;-75
2023/06/16 05:50:28;;;;;;;15.98;14.38;;;16.60;99.90;;;;;;5058234;28;20079;-77
2023/06/16 05:52:54;;;;;;;14.02;12.25;;;16.70;99.90;;;;;;5057493;28;20044;-78
2023/06/16 05:55:20;;;;;;;17.83;16.02;;;16.80;99.90;;;;;;5039129;28;20127;-77
2023/06/16 05:57:45;;;;;;;17.63;15.32;;;16.80;99.90;;;;;;5023735;28;20037;-77
2023/06/16 06:00:12;;;;;;;15.45;13.73;;;16.90;99.90;;;;;;5069141;28;20568;-76
2023/06/16 06:02:37;;;;;;;14.20;12.50;;;16.90;99.90;;;;;;5065881;28;20435;-75
2023/06/16 06:05:03;;;;;;;14.30;12.85;;;17.00;99.90;;;;;;5062708;28;20493;-74
2023/06/16 06:07:29;;;;;;;13.00;11.73;;;17.10;99.90;;;;;;5079339;28;20055;-75
2023/06/16 06:09:55;;;;;;;13.18;11.95;;;17.90;99.90;;;;;;5072919;28;20102;-75
2023/06/16 06:12:21;;;;;;;16.77;14.93;;;17.70;99.90;;;;;;5066022;28;20041;-76
2023/06/16 06:14:46;;;;;;;14.10;12.57;;;17.20;99.90;;;;;;5073543;28;20127;-75
2023/06/16 06:17:12;;;;;;;14.63;12.65;;;17.20;99.90;;;;;;5065922;28;20290;-74
2023/06/16 06:19:38;;;;;;;20.98;18.63;;;17.20;99.90;;;;;;5071004;28;20044;-76
2023/06/16 06:22:03;;;;;;;21.85;19.55;;;17.30;99.90;;;;;;5051700;28;20067;-76
2023/06/16 06:24:29;;;;;;;14.65;13.15;;;17.40;99.90;;;;;;5066906;28;20132;-76
2023/06/16 06:26:57;;;;;;;13.95;12.55;;;17.40;99.90;;;;;;5076026;28;20392;-77
2023/06/16 06:29:22;;;;;;;14.68;12.07;;;17.50;99.90;;;;;;5080433;28;20138;-77
2023/06/16 06:31:48;;;;;;;12.65;11.55;;;17.50;99.90;;;;;;5079497;28;20499;-79
2023/06/16 06:34:13;;;;;;;12.43;11.13;;;17.50;99.90;;;;;;5081654;28;20048;-79
2023/06/16 06:36:39;;;;;;;15.88;12.32;;;17.60;99.90;;;;;;5081207;28;20399;-78
2023/06/16 06:39:05;;;;;;;15.20;11.05;;;17.60;99.90;;;;;;5084329;28;20036;-78
2023/06/16 06:41:31;;;;;;;14.07;10.32;;;17.70;99.90;;;;;;5071611;28;20048;-76
2023/06/16 06:43:56;;;;;;;12.43;10.90;;;18.10;99.90;;;;;;5083487;28;20032;-76
2023/06/16 06:46:22;;;;;;;11.32;10.15;;;17.80;99.90;;;;;;5077042;28;20048;-77
2023/06/16 06:48:52;;;;;;;10.52;9.43;;;17.80;99.90;;;;;;4856979;28;10001452;-76
2023/06/16 06:51:17;;;;;;;11.85;10.30;;;18.00;99.90;;;;;;5070767;28;20249;-75
2023/06/16 06:53:43;;;;;;;11.32;10.32;;;17.90;99.90;;;;;;5075262;28;20123;-75
2023/06/16 06:56:09;;;;;;;11.55;10.40;;;18.00;99.90;;;;;;5072048;28;20037;-77
2023/06/16 06:58:35;;;;;;;10.60;9.60;;;18.00;99.90;;;;;;5068513;28;20048;-77
2023/06/16 07:01:01;;;;;;;11.50;10.40;;;18.10;99.90;;;;;;5048217;28;20413;-76
2023/06/16 07:03:27;;;;;;;12.85;10.43;;;18.10;99.90;;;;;;5076670;28;20123;-78
2023/06/16 07:05:53;;;;;;;11.45;10.45;;;18.20;99.90;;;;;;5059193;28;20048;-78
2023/06/16 07:08:19;;;;;;;11.77;10.57;;;18.30;99.90;;;;;;5066765;28;20048;-77
2023/06/16 07:10:44;;;;;;;11.23;10.20;;;18.30;99.90;;;;;;5056524;28;20101;-76
2023/06/16 07:13:10;;;;;;;14.02;10.32;;;18.40;99.90;;;;;;5077708;28;20508;-75
2023/06/16 07:15:36;;;;;;;9.48;8.63;;;19.80;99.90;;;;;;5079674;28;20558;-76
2023/06/16 07:18:01;;;;;;;9.98;8.10;;;18.50;99.90;;;;;;5068201;28;20439;-76
2023/06/16 07:20:27;;;;;;;9.20;7.78;;;18.50;99.90;;;;;;5064841;28;20127;-77
2023/06/16 07:22:53;;;;;;;9.05;8.15;;;19.20;99.90;;;;;;5072074;28;20090;-76
2023/06/16 07:25:19;;;;;;;9.85;8.70;;;19.40;99.90;;;;;;5059939;28;20036;-77
2023/06/16 07:27:45;;;;;;;8.20;7.53;;;19.30;99.90;;;;;;5056955;28;20043;-75
2023/06/16 07:30:11;;;;;;;9.10;8.10;;;19.50;99.90;;;;;;5043629;28;20086;-77
2023/06/16 07:32:39;;;;;;;10.50;9.55;;;18.70;99.90;;;;;;5046967;28;20088;-80
2023/06/16 07:35:06;;;;;;;10.65;9.30;;;18.80;99.90;;;;;;5068696;28;20028;-77
2023/06/16 07:37:32;;;;;;;11.73;9.60;;;18.80;99.90;;;;;;5062913;28;20166;-77
2023/06/16 07:39:58;;;;;;;8.70;7.80;;;18.90;99.90;;;;;;5033283;28;20072;-75
2023/06/16 07:42:24;;;;;;;9.23;8.43;;;19.00;99.90;;;;;;5068819;28;20099;-75
2023/06/16 07:44:49;;;;;;;9.40;7.47;;;19.00;99.90;;;;;;5072477;28;20071;-78
2023/06/16 07:47:15;;;;;;;8.45;6.53;;;19.10;99.90;;;;;;5071301;28;20060;-76
2023/06/16 07:49:41;;;;;;;6.93;6.20;;;19.20;99.90;;;;;;5064130;28;20043;-77
2023/06/16 07:52:07;;;;;;;7.47;6.15;;;19.20;99.90;;;;;;5072157;28;20434;-79
2023/06/16 07:54:33;;;;;;;8.70;6.72;;;19.30;99.90;;;;;;5072339;28;20072;-76
2023/06/16 07:56:59;;;;;;;7.55;6.93;;;19.30;99.90;;;;;;5057317;28;20101;-74
2023/06/16 07:59:26;;;;;;;7.82;6.38;;;19.30;99.90;;;;;;5042444;28;20120;-74
2023/06/16 08:01:52;;;;;;;8.93;6.05;;;19.30;99.90;;;;;;5075775;28;20039;-75
2023/06/16 08:04:17;;;;;;;7.60;6.88;;;19.40;99.90;;;;;;5037967;28;20029;-75
2023/06/16 08:06:43;;;;;;;6.00;5.55;;;19.50;99.90;;;;;;5074631;28;20072;-75
2023/06/16 08:09:10;;;;;;;10.20;6.57;;;19.50;99.90;;;;;;5068867;28;20072;-76
2023/06/16 08:11:35;;;;;;;6.35;4.80;;;19.60;99.90;;;;;;5055212;28;20151;-75
2023/06/16 08:14:01;;;;;;;5.13;4.50;;;19.60;99.90;;;;;;5065021;28;20167;-76
2023/06/16 08:16:27;;;;;;;8.57;4.38;;;19.60;99.90;;;;;;5064657;28;20037;-77
2023/06/16 08:18:56;;;;;;;5.38;4.82;;;19.70;99.90;;;;;;5065850;28;20161;-75
2023/06/16 08:21:22;;;;;;;4.53;3.88;;;19.70;99.90;;;;;;5054837;28;20758;-75
2023/06/16 08:23:48;;;;;;;6.32;3.50;;;19.80;99.20;;;;;;5068195;28;20080;-77
2023/06/16 08:26:13;;;;;;;4.53;3.00;;;19.70;98.10;;;;;;5051857;28;20117;-78
2023/06/16 08:28:40;;;;;;;3.97;3.28;;;19.70;97.30;;;;;;5077210;28;20518;-78
2023/06/16 08:31:05;;;;;;;7.93;2.55;;;19.50;96.50;;;;;;5075002;28;20066;-77
2023/06/16 08:33:32;;;;;;;4.63;2.60;;;19.70;95.50;;;;;;5080139;28;20472;-78
2023/06/16 08:35:58;;;;;;;2.65;2.45;;;19.70;94.60;;;;;;5080734;28;20040;-79
2023/06/16 08:38:23;;;;;;;5.47;2.28;;;19.80;93.90;;;;;;5080573;28;20526;-77
2023/06/16 08:40:49;;;;;;;3.92;2.63;;;19.80;92.90;;;;;;5058129;28;20041;-78
2023/06/16 08:43:16;;;;;;;4.10;2.03;;;19.90;92.20;;;;;;5080997;28;20036;-79
2023/06/16 08:45:45;;;;;;;2.75;2.10;;;19.90;92.00;;;;;;5082355;28;20446;-80
2023/06/16 08:48:13;;;;;;;4.68;2.22;;;20.00;91.80;;;;;;5057130;28;20551;-79
2023/06/16 08:50:39;;;;;;;3.00;2.65;;;20.00;91.50;;;;;;5075854;28;20118;-79
2023/06/16 08:53:08;;;;;;;2.42;2.13;;;20.10;91.00;;;;;;5080729;28;20599;-78
2023/06/16 08:55:37;;;;;;;2.65;2.08;;;20.20;90.90;;;;;;5080342;28;20052;-78
2023/06/16 08:58:03;;;;;;;2.35;1.90;;;20.10;90.60;;;;;;5083790;28;20114;-78
2023/06/16 09:00:32;;;;;;;4.85;1.80;;;20.20;90.00;;;;;;5065753;28;20106;-79
2023/06/16 09:02:59;;;;;;;2.13;1.90;;;20.20;89.90;;;;;;5069900;28;20481;-78
2023/06/16 09:05:25;;;;;;;2.72;1.60;;;20.30;88.10;;;;;;5075282;28;20532;-78
2023/06/16 09:07:51;;;;;;;2.17;1.75;;;20.30;88.10;;;;;;5068929;28;20040;-75
2023/06/16 09:10:17;;;;;;;4.20;2.10;;;20.40;89.10;;;;;;5059844;28;20029;-75
2023/06/16 09:12:43;;;;;;;2.65;1.98;;;20.50;89.60;;;;;;5068440;28;20058;-75
2023/06/16 09:15:10;;;;;;;2.20;2.10;;;20.60;89.60;;;;;;5082040;28;20028;-74
2023/06/16 09:17:37;;;;;;;4.90;2.40;;;20.60;89.80;;;;;;5067789;28;20088;-74
2023/06/16 09:20:06;;;;;;;3.55;2.30;;;20.50;89.30;;;;;;5073835;28;20068;-73
2023/06/16 09:22:32;;;;;;;3.63;2.30;;;20.60;90.10;;;;;;5082883;28;20043;-73
2023/06/16 09:25:00;;;;;;;3.55;2.40;;;20.70;90.50;;;;;;5078182;28;20397;-74
2023/06/16 09:27:46;;;;;;;3.90;2.17;;;20.60;90.60;;;;;;5079597;28;20123;-75
2023/06/16 09:30:18;;;;;;;2.75;1.88;;;20.70;90.70;;;;;;5047150;28;20116;-74
2023/06/16 09:32:53;;;;;;;3.22;1.90;;;20.70;90.50;;;;;;5074569;28;20488;-74
2023/06/16 09:35:21;;;;;;;3.97;1.92;;;20.80;90.10;;;;;;5082693;28;20191;-75
2023/06/16 09:37:48;;;;;;;2.65;2.03;;;20.80;90.30;;;;;;5072420;28;20051;-73
2023/06/16 09:40:15;;;;;;;3.83;2.03;;;20.80;90.30;;;;;;5069808;28;20051;-73
2023/06/16 09:42:42;;;;;;;4.68;2.60;;;20.90;90.30;;;;;;5074633;28;20043;-73
2023/06/16 09:45:11;;;;;;;4.10;2.00;;;21.00;89.50;;;;;;5082346;28;20135;-73
2023/06/16 09:47:38;;;;;;;2.63;2.03;;;21.00;89.40;;;;;;5064583;28;20400;-75
2023/06/16 09:50:10;;;;;;;5.13;2.58;;;21.10;90.10;;;;;;5074395;28;20563;-73
2023/06/16 09:52:36;;;;;;;2.22;1.85;;;21.10;89.50;;;;;;5072288;28;20466;-76
2023/06/16 09:55:02;;;;;;;8.30;2.20;;;21.20;89.30;;;;;;5074012;28;20048;-77
2023/06/16 09:57:28;;;;;;;2.17;1.98;;;21.30;89.00;;;;;;5078505;28;20052;-76
2023/06/16 09:59:54;;;;;;;3.15;2.15;;;21.30;88.70;;;;;;5063554;28;20384;-76
2023/06/16 10:02:23;;;;;;;3.65;2.15;;;21.40;87.80;;;;;;5080406;28;20040;-76
2023/06/16 10:04:53;;;;;;;5.25;2.00;;;21.30;87.80;;;;;;5080436;28;20067;-76
2023/06/16 10:07:19;;;;;;;3.08;2.08;;;21.40;88.00;;;;;;5072048;28;20372;-74
2023/06/16 10:09:48;;;;;;;5.55;2.00;;;21.80;88.20;;;;;;5048111;28;20527;-77
2023/06/16 10:12:15;;;;;;;2.22;1.50;;;21.50;88.50;;;;;;5061986;28;20094;-77
2023/06/16 10:14:41;;;;;;;4.25;2.17;;;21.50;88.10;;;;;;5067470;28;20045;-76
2023/06/16 10:17:11;;;;;;;4.47;2.00;;;21.60;87.30;;;;;;5069268;28;20043;-77
2023/06/16 10:19:40;;;;;;;4.75;2.15;;;21.80;88.20;;;;;;5072316;28;20459;-77
2023/06/16 10:22:06;;;;;;;5.05;1.90;;;21.70;87.90;;;;;;5070824;28;20048;-76
2023/06/16 10:24:31;;;;;;;2.38;1.95;;;21.70;86.90;;;;;;5078256;28;20044;-74
2023/06/16 10:26:58;;;;;;;2.58;2.10;;;21.80;86.90;;;;;;5079747;28;20493;-74
2023/06/16 10:29:27;;;;;;;2.17;1.98;;;21.90;85.60;;;;;;5067440;28;20045;-74
2023/06/16 10:32:04;;;;;;;4.22;2.28;;;22.50;85.20;;;;;;5079151;28;20135;-74
2023/06/16 10:34:30;;;;;;;5.18;2.03;;;21.90;83.00;;;;;;5081300;28;20032;-75
2023/06/16 10:36:57;;;;;;;3.67;1.98;;;22.10;84.10;;;;;;5070557;28;20111;-75
2023/06/16 10:39:23;;;;;;;2.22;2.00;;;22.00;83.80;;;;;;5076996;28;20045;-74
2023/06/16 10:41:53;;;;;;;5.22;2.40;;;22.10;82.50;;;;;;5077950;28;20407;-75
2023/06/16 10:44:26;;;;;;;6.93;2.40;;;22.10;82.50;;;;;;5068824;28;20033;-75
2023/06/16 10:47:04;;;;;;;3.65;2.20;;;22.20;83.00;;;;;;5062660;28;20077;-76
2023/06/16 10:49:31;;;;;;;2.63;1.95;;;22.20;82.00;;;;;;5081240;28;20048;-75
2023/06/16 10:51:58;;;;;;;8.48;2.50;;;22.30;82.40;;;;;;5074183;28;20124;-75
2023/06/16 10:54:33;;;;;;;2.20;2.00;;;22.30;82.70;;;;;;5055588;28;20052;-76
2023/06/16 10:57:03;;;;;;;5.53;2.22;;;22.40;81.90;;;;;;5080507;28;20087;-76
2023/06/16 10:59:30;;;;;;;2.40;2.20;;;22.40;82.40;;;;;;5073204;28;20032;-76
2023/06/16 11:02:00;;;;;;;4.20;1.70;;;22.50;80.60;;;;;;5076012;28;20070;-76
2023/06/16 11:04:26;;;;;;;3.90;2.08;;;22.50;80.10;;;;;;5071779;28;20036;-76
2023/06/16 11:07:03;;;;;;;2.05;1.50;;;22.60;81.00;;;;;;5069258;28;20155;-76
2023/06/16 11:09:30;;;;;;;3.03;2.10;;;22.60;79.40;;;;;;5070380;28;20038;-76
2023/06/16 11:12:02;;;;;;;3.40;1.65;;;22.70;80.30;;;;;;5056070;28;20033;-76
2023/06/16 11:14:28;;;;;;;3.45;2.28;;;22.80;80.70;;;;;;5077599;28;20115;-76
2023/06/16 11:16:55;;;;;;;1.83;1.73;;;22.90;79.80;;;;;;5078117;28;20166;-76
2023/06/16 11:19:21;;;;;;;7.00;2.20;;;23.00;79.00;;;;;;5081034;28;20047;-76
2023/06/16 11:21:47;;;;;;;5.78;2.08;;;23.00;77.90;;;;;;5067783;28;20036;-76
2023/06/16 11:24:13;;;;;;;4.10;2.03;;;23.00;79.20;;;;;;5076164;28;20048;-78
2023/06/16 11:26:40;;;;;;;6.25;1.90;;;23.20;79.30;;;;;;5074887;28;20417;-77
2023/06/16 11:29:07;;;;;;;2.92;1.63;;;23.30;79.00;;;;;;5064885;28;20037;-77
2023/06/16 11:31:35;;;;;;;3.10;1.80;;;23.40;78.90;;;;;;5061338;28;20041;-76
2023/06/16 11:34:02;;;;;;;2.35;1.50;;;23.60;78.70;;;;;;5042965;28;20055;-74
2023/06/16 11:36:28;;;;;;;3.42;1.70;;;23.70;78.60;;;;;;5070284;28;20124;-73
2023/06/16 11:38:57;;;;;;;2.53;1.42;;;23.80;76.90;;;;;;5062271;28;20135;-73
2023/06/16 11:41:27;;;;;;;4.35;1.58;;;23.80;76.80;;;;;;5079256;28;20036;-74
2023/06/16 11:43:53;;;;;;;2.72;1.60;;;23.90;76.30;;;;;;5078040;28;20043;-74
2023/06/16 11:46:24;;;;;;;1.92;1.83;;;24.00;76.40;;;;;;5077536;28;20052;-74
2023/06/16 11:48:51;;;;;;;2.50;1.60;;;24.10;76.40;;;;;;5076790;28;20138;-73
2023/06/16 11:51:18;;;;;;;2.10;1.90;;;24.30;76.30;;;;;;5079939;28;20064;-73
2023/06/16 11:53:47;;;;;;;4.65;1.83;;;24.30;75.80;;;;;;5077605;28;20442;-73
2023/06/16 11:56:15;;;;;;;2.40;1.27;;;24.40;75.90;;;;;;5080291;28;20377;-72
2023/06/16 11:58:48;;;;;;;4.78;1.75;;;24.50;76.60;;;;;;5069082;28;20049;-74
2023/06/16 12:01:15;;;;;;;4.93;1.90;;;24.60;75.60;;;;;;5079172;28;20102;-78
2023/06/16 12:03:42;;;;;;;2.35;1.40;;;24.80;75.40;;;;;;5045463;28;20051;-78
2023/06/16 12:06:09;;;;;;;5.03;2.30;;;24.80;75.30;;;;;;5072040;28;20072;-80
2023/06/16 12:08:41;;;;;;;2.72;1.38;;;24.90;75.40;;;;;;5063259;28;20048;-79
2023/06/16 12:11:09;;;;;;;3.08;1.90;;;24.90;75.20;;;;;;5076100;28;20040;-77
2023/06/16 12:13:36;;;;;;;5.00;1.90;;;25.30;75.80;;;;;;5070060;28;20051;-77
2023/06/16 12:16:06;;;;;;;2.17;1.50;;;25.10;75.20;;;;;;5074709;28;20032;-78
2023/06/16 12:18:32;;;;;;;3.60;1.70;;;25.10;75.10;;;;;;5063321;28;20092;-77
2023/06/16 12:21:19;;;;;;;4.43;1.60;;;25.20;75.00;;;;;;5056399;28;20301;-78
2023/06/16 12:23:52;;;;;;;2.42;1.60;;;25.30;74.80;;;;;;5069077;28;20055;-78
2023/06/16 12:26:30;;;;;;;3.20;1.50;;;25.30;73.90;;;;;;5044622;28;20051;-78
2023/06/16 12:28:56;;;;;;;2.90;1.45;;;25.40;75.30;;;;;;5077724;28;20032;-77
2023/06/16 12:31:26;;;;;;;4.20;1.80;;;25.60;75.30;;;;;;5073473;28;20044;-77
2023/06/16 12:33:53;;;;;;;2.38;1.40;;;25.70;74.30;;;;;;5073989;28;20090;-81
2023/06/16 12:36:20;;;;;;;2.28;1.50;;;25.70;73.60;;;;;;5076012;28;20047;-82
2023/06/16 12:38:46;;;;;;;4.97;1.80;;;25.60;73.10;;;;;;5078158;28;20055;-77
2023/06/16 12:41:16;;;;;;;15.13;4.47;;;25.60;73.40;;;;;;5048919;28;20101;-81